UHPP

Yelizovo  Airport

Petropavlovsk-Kamchatsky, Russian Federation

UHPP 241600Z 08003MPS 9999 NSC M01/M09 Q0999 R16R/750132 NOSIG RMK QFE746/0995

Observed Flight Rules
Nov-24 @ 16:00 UTC (47 minutes ago)
 
Visual Flight Rules
Wind Visibility Clouds
80° at 6 knots 10,000+ meters
  • Clear skies
Temperatures Readings
Current -1°C / 30°F
Dewpoint -9°C / 16°F
Humidity 55%
Altimeter 29.5" Hg
Pressure 999 hPa
Elevation 40
Observed Flight Rules
Nov-24 @ 16:00 UTC
(47 minutes ago)
 
VFR
Wind Visibility
80° at 6 knots 10,000+ meters
Clouds
  • Clear skies
Temperature Dewpoint
-1°C / 30°F -9°C / 16°F
Humidity Altimeter Pressure
55% 29.5" Hg 999 hPa